sensor_id;sensor_type;location;lat;lon;timestamp;pressure;altitude;pressure_sealevel;temperature;humidity
35023;BME280;21214;44.912;8.204;2023-11-21T00:00:10;99071.09;;;9.43;100.00
35023;BME280;21214;44.912;8.204;2023-11-21T00:02:41;99063.88;;;9.45;100.00
35023;BME280;21214;44.912;8.204;2023-11-21T00:05:07;99070.81;;;9.47;100.00
35023;BME280;21214;44.912;8.204;2023-11-21T00:07:33;99065.69;;;9.45;100.00
35023;BME280;21214;44.912;8.204;2023-11-21T00:09:59;99065.56;;;9.47;100.00
35023;BME280;21214;44.912;8.204;2023-11-21T00:12:24;99060.41;;;9.45;100.00
35023;BME280;21214;44.912;8.204;2023-11-21T00:14:50;99060.56;;;9.43;100.00
35023;BME280;21214;44.912;8.204;2023-11-21T00:17:15;99057.28;;;9.41;100.00
35023;BME280;21214;44.912;8.204;2023-11-21T00:19:41;99068.78;;;9.40;100.00
35023;BME280;21214;44.912;8.204;2023-11-21T00:22:08;99061.16;;;9.37;100.00
35023;BME280;21214;44.912;8.204;2023-11-21T00:24:34;99064.38;;;9.31;100.00
35023;BME280;21214;44.912;8.204;2023-11-21T00:27:00;99063.72;;;9.29;100.00
35023;BME280;21214;44.912;8.204;2023-11-21T00:29:25;99062.31;;;9.25;100.00
35023;BME280;21214;44.912;8.204;2023-11-21T00:31:51;99052.78;;;9.24;100.00
35023;BME280;21214;44.912;8.204;2023-11-21T00:34:16;99047.53;;;9.24;100.00
35023;BME280;21214;44.912;8.204;2023-11-21T00:36:42;99051.41;;;9.20;100.00
35023;BME280;21214;44.912;8.204;2023-11-21T00:39:07;99046.00;;;9.22;100.00
35023;BME280;21214;44.912;8.204;2023-11-21T00:41:33;99044.91;;;9.24;100.00
35023;BME280;21214;44.912;8.204;2023-11-21T00:43:59;99041.25;;;9.25;100.00
35023;BME280;21214;44.912;8.204;2023-11-21T00:46:26;99047.34;;;9.26;100.00
35023;BME280;21214;44.912;8.204;2023-11-21T00:48:54;99042.91;;;9.26;100.00
35023;BME280;21214;44.912;8.204;2023-11-21T00:51:20;99044.44;;;9.29;100.00
35023;BME280;21214;44.912;8.204;2023-11-21T00:53:45;99041.81;;;9.29;100.00
35023;BME280;21214;44.912;8.204;2023-11-21T00:56:11;99034.44;;;9.32;100.00
35023;BME280;21214;44.912;8.204;2023-11-21T00:58:37;99035.28;;;9.33;100.00
35023;BME280;21214;44.912;8.204;2023-11-21T01:01:02;99029.88;;;9.34;100.00
35023;BME280;21214;44.912;8.204;2023-11-21T01:03:28;99036.78;;;9.35;100.00
35023;BME280;21214;44.912;8.204;2023-11-21T01:05:54;99038.72;;;9.33;100.00
35023;BME280;21214;44.912;8.204;2023-11-21T01:08:20;99041.22;;;9.35;100.00
35023;BME280;21214;44.912;8.204;2023-11-21T01:10:46;99033.00;;;9.38;100.00
35023;BME280;21214;44.912;8.204;2023-11-21T01:13:12;99023.19;;;9.40;100.00
35023;BME280;21214;44.912;8.204;2023-11-21T01:15:40;99025.66;;;9.41;100.00
35023;BME280;21214;44.912;8.204;2023-11-21T01:18:05;99027.09;;;9.36;100.00
35023;BME280;21214;44.912;8.204;2023-11-21T01:20:31;99024.88;;;9.31;100.00
35023;BME280;21214;44.912;8.204;2023-11-21T01:22:57;99024.81;;;9.23;100.00
35023;BME280;21214;44.912;8.204;2023-11-21T01:25:22;99030.72;;;9.25;100.00
35023;BME280;21214;44.912;8.204;2023-11-21T01:27:48;99032.78;;;9.31;100.00
35023;BME280;21214;44.912;8.204;2023-11-21T01:30:14;99031.81;;;9.32;100.00
35023;BME280;21214;44.912;8.204;2023-11-21T01:32:39;99041.50;;;9.32;100.00
35023;BME280;21214;44.912;8.204;2023-11-21T01:35:05;99033.47;;;9.33;100.00
35023;BME280;21214;44.912;8.204;2023-11-21T01:37:32;99030.97;;;9.32;100.00
35023;BME280;21214;44.912;8.204;2023-11-21T01:39:58;99035.41;;;9.31;100.00
35023;BME280;21214;44.912;8.204;2023-11-21T01:42:24;99042.34;;;9.32;100.00
35023;BME280;21214;44.912;8.204;2023-11-21T01:44:49;99032.97;;;9.20;100.00
35023;BME280;21214;44.912;8.204;2023-11-21T01:47:15;99040.28;;;9.26;100.00
35023;BME280;21214;44.912;8.204;2023-11-21T01:49:43;99036.00;;;9.25;100.00
35023;BME280;21214;44.912;8.204;2023-11-21T01:52:08;99031.03;;;9.22;100.00
35023;BME280;21214;44.912;8.204;2023-11-21T01:54:36;99032.69;;;9.23;100.00
35023;BME280;21214;44.912;8.204;2023-11-21T01:57:02;99038.25;;;9.20;100.00
35023;BME280;21214;44.912;8.204;2023-11-21T01:59:35;99024.09;;;9.21;100.00
35023;BME280;21214;44.912;8.204;2023-11-21T02:02:04;99034.25;;;9.16;100.00
35023;BME280;21214;44.912;8.204;2023-11-21T02:04:31;99037.72;;;9.17;100.00
35023;BME280;21214;44.912;8.204;2023-11-21T02:06:57;99034.94;;;9.18;100.00
35023;BME280;21214;44.912;8.204;2023-11-21T02:09:24;99036.31;;;9.22;100.00
35023;BME280;21214;44.912;8.204;2023-11-21T02:11:51;99028.09;;;9.25;100.00
35023;BME280;21214;44.912;8.204;2023-11-21T02:14:16;99030.31;;;9.30;100.00
35023;BME280;21214;44.912;8.204;2023-11-21T02:16:45;99040.84;;;9.30;100.00
35023;BME280;21214;44.912;8.204;2023-11-21T02:19:16;99044.31;;;9.30;100.00
35023;BME280;21214;44.912;8.204;2023-11-21T02:21:45;99042.91;;;9.26;100.00
35023;BME280;21214;44.912;8.204;2023-11-21T02:24:11;99034.75;;;9.29;100.00
35023;BME280;21214;44.912;8.204;2023-11-21T02:26:37;99036.41;;;9.30;100.00
35023;BME280;21214;44.912;8.204;2023-11-21T02:29:02;99042.34;;;9.32;100.00
35023;BME280;21214;44.912;8.204;2023-11-21T02:31:29;99039.44;;;9.35;100.00
35023;BME280;21214;44.912;8.204;2023-11-21T02:33:55;99027.91;;;9.36;100.00
35023;BME280;21214;44.912;8.204;2023-11-21T02:36:20;99028.72;;;9.37;100.00
35023;BME280;21214;44.912;8.204;2023-11-21T02:38:47;99027.59;;;9.39;100.00
35023;BME280;21214;44.912;8.204;2023-11-21T02:41:13;99020.41;;;9.41;100.00
35023;BME280;21214;44.912;8.204;2023-11-21T02:43:39;99010.69;;;9.42;100.00
35023;BME280;21214;44.912;8.204;2023-11-21T02:46:05;99012.31;;;9.43;100.00
35023;BME280;21214;44.912;8.204;2023-11-21T02:48:31;99007.06;;;9.43;100.00
35023;BME280;21214;44.912;8.204;2023-11-21T02:50:56;99004.59;;;9.41;100.00
35023;BME280;21214;44.912;8.204;2023-11-21T02:53:22;99010.84;;;9.40;100.00
35023;BME280;21214;44.912;8.204;2023-11-21T02:55:47;99004.88;;;9.38;100.00
35023;BME280;21214;44.912;8.204;2023-11-21T02:58:12;99003.22;;;9.37;100.00
35023;BME280;21214;44.912;8.204;2023-11-21T03:00:38;99001.19;;;9.31;100.00
35023;BME280;21214;44.912;8.204;2023-11-21T03:03:07;99003.16;;;9.29;100.00
35023;BME280;21214;44.912;8.204;2023-11-21T03:05:32;99006.06;;;9.26;100.00
35023;BME280;21214;44.912;8.204;2023-11-21T03:08:00;98999.13;;;9.25;100.00
35023;BME280;21214;44.912;8.204;2023-11-21T03:10:26;98999.44;;;9.22;100.00
35023;BME280;21214;44.912;8.204;2023-11-21T03:12:52;98996.69;;;9.24;100.00
35023;BME280;21214;44.912;8.204;2023-11-21T03:15:17;98998.47;;;9.23;100.00
35023;BME280;21214;44.912;8.204;2023-11-21T03:17:44;98998.38;;;9.15;100.00
35023;BME280;21214;44.912;8.204;2023-11-21T03:20:10;98996.88;;;9.13;100.00
35023;BME280;21214;44.912;8.204;2023-11-21T03:22:36;98992.41;;;9.13;100.00
35023;BME280;21214;44.912;8.204;2023-11-21T03:25:02;99002.22;;;9.21;100.00
35023;BME280;21214;44.912;8.204;2023-11-21T03:27:28;98993.50;;;9.20;100.00
35023;BME280;21214;44.912;8.204;2023-11-21T03:29:53;98991.16;;;9.17;100.00
35023;BME280;21214;44.912;8.204;2023-11-21T03:32:19;98993.09;;;9.15;100.00
35023;BME280;21214;44.912;8.204;2023-11-21T03:34:55;98996.19;;;9.11;100.00
35023;BME280;21214;44.912;8.204;2023-11-21T03:37:24;98988.75;;;9.06;100.00
35023;BME280;21214;44.912;8.204;2023-11-21T03:39:50;98988.03;;;9.04;100.00
35023;BME280;21214;44.912;8.204;2023-11-21T03:42:15;98979.88;;;9.07;100.00
35023;BME280;21214;44.912;8.204;2023-11-21T03:44:41;98983.47;;;9.06;100.00
35023;BME280;21214;44.912;8.204;2023-11-21T03:47:06;98980.00;;;9.06;100.00
35023;BME280;21214;44.912;8.204;2023-11-21T03:49:32;98984.97;;;9.09;100.00
35023;BME280;21214;44.912;8.204;2023-11-21T03:51:58;98973.47;;;9.10;100.00
35023;BME280;21214;44.912;8.204;2023-11-21T03:54:23;98984.97;;;9.09;100.00
35023;BME280;21214;44.912;8.204;2023-11-21T03:56:49;98981.22;;;9.11;100.00
35023;BME280;21214;44.912;8.204;2023-11-21T03:59:14;98983.72;;;9.13;100.00
35023;BME280;21214;44.912;8.204;2023-11-21T04:01:39;98987.06;;;9.05;100.00
35023;BME280;21214;44.912;8.204;2023-11-21T04:04:05;98988.03;;;9.04;100.00
35023;BME280;21214;44.912;8.204;2023-11-21T04:06:30;98988.19;;;9.02;100.00
35023;BME280;21214;44.912;8.204;2023-11-21T04:08:58;98998.19;;;8.99;100.00
35023;BME280;21214;44.912;8.204;2023-11-21T04:11:23;99002.63;;;8.98;100.00
35023;BME280;21214;44.912;8.204;2023-11-21T04:13:48;99000.13;;;8.97;100.00
35023;BME280;21214;44.912;8.204;2023-11-21T04:16:14;98998.47;;;8.96;100.00
35023;BME280;21214;44.912;8.204;2023-11-21T04:18:39;99003.06;;;8.94;100.00
35023;BME280;21214;44.912;8.204;2023-11-21T04:21:05;99010.00;;;8.95;100.00
35023;BME280;21214;44.912;8.204;2023-11-21T04:23:31;99002.38;;;8.92;100.00
35023;BME280;21214;44.912;8.204;2023-11-21T04:25:57;99000.72;;;8.91;100.00
35023;BME280;21214;44.912;8.204;2023-11-21T04:28:23;99008.47;;;8.92;100.00
35023;BME280;21214;44.912;8.204;2023-11-21T04:30:49;99007.94;;;8.89;100.00
35023;BME280;21214;44.912;8.204;2023-11-21T04:33:15;99007.09;;;8.88;100.00
35023;BME280;21214;44.912;8.204;2023-11-21T04:35:41;98999.88;;;8.90;100.00
35023;BME280;21214;44.912;8.204;2023-11-21T04:38:08;99012.91;;;8.92;100.00
35023;BME280;21214;44.912;8.204;2023-11-21T04:40:33;99014.41;;;8.94;100.00
35023;BME280;21214;44.912;8.204;2023-11-21T04:42:58;99014.25;;;8.96;100.00
35023;BME280;21214;44.912;8.204;2023-11-21T04:45:24;99017.56;;;8.98;100.00
35023;BME280;21214;44.912;8.204;2023-11-21T04:47:49;99011.47;;;8.97;100.00
35023;BME280;21214;44.912;8.204;2023-11-21T04:50:15;99010.97;;;8.94;100.00
35023;BME280;21214;44.912;8.204;2023-11-21T04:52:40;99007.34;;;8.95;100.00
35023;BME280;21214;44.912;8.204;2023-11-21T04:55:06;99011.63;;;8.96;100.00
35023;BME280;21214;44.912;8.204;2023-11-21T04:57:35;99009.28;;;8.93;100.00
35023;BME280;21214;44.912;8.204;2023-11-21T05:00:00;99015.00;;;8.88;100.00
35023;BME280;21214;44.912;8.204;2023-11-21T05:02:26;99025.66;;;8.87;100.00
35023;BME280;21214;44.912;8.204;2023-11-21T05:04:51;99021.38;;;8.86;100.00
35023;BME280;21214;44.912;8.204;2023-11-21T05:07:18;99022.34;;;8.85;100.00
35023;BME280;21214;44.912;8.204;2023-11-21T05:09:43;99024.97;;;8.85;100.00
35023;BME280;21214;44.912;8.204;2023-11-21T05:12:11;99023.03;;;8.87;100.00
35023;BME280;21214;44.912;8.204;2023-11-21T05:14:36;99018.75;;;8.86;100.00
35023;BME280;21214;44.912;8.204;2023-11-21T05:17:02;99011.53;;;8.88;100.00
35023;BME280;21214;44.912;8.204;2023-11-21T05:19:29;99009.88;;;8.87;100.00
35023;BME280;21214;44.912;8.204;2023-11-21T05:21:54;99005.97;;;8.91;100.00
35023;BME280;21214;44.912;8.204;2023-11-21T05:24:20;99005.97;;;8.91;100.00
35023;BME280;21214;44.912;8.204;2023-11-21T05:26:45;99003.19;;;8.92;100.00
35023;BME280;21214;44.912;8.204;2023-11-21T05:29:11;98998.78;;;8.93;100.00
35023;BME280;21214;44.912;8.204;2023-11-21T05:31:36;99004.72;;;8.95;100.00
35023;BME280;21214;44.912;8.204;2023-11-21T05:34:03;99001.09;;;8.96;100.00
35023;BME280;21214;44.912;8.204;2023-11-21T05:36:28;99005.69;;;8.94;100.00
35023;BME280;21214;44.912;8.204;2023-11-21T05:38:54;99012.31;;;8.98;100.00
35023;BME280;21214;44.912;8.204;2023-11-21T05:41:19;99014.66;;;9.01;100.00
35023;BME280;21214;44.912;8.204;2023-11-21T05:43:45;99022.25;;;9.04;100.00
35023;BME280;21214;44.912;8.204;2023-11-21T05:46:10;99019.63;;;9.04;100.00
35023;BME280;21214;44.912;8.204;2023-11-21T05:48:36;99013.66;;;9.02;100.00
35023;BME280;21214;44.912;8.204;2023-11-21T05:51:04;99016.22;;;8.94;100.00
35023;BME280;21214;44.912;8.204;2023-11-21T05:53:29;99014.25;;;8.96;100.00
35023;BME280;21214;44.912;8.204;2023-11-21T05:55:55;99011.78;;;8.94;100.00
35023;BME280;21214;44.912;8.204;2023-11-21T05:58:21;99010.66;;;8.97;100.00
35023;BME280;21214;44.912;8.204;2023-11-21T06:00:46;99014.50;;;9.02;100.00
35023;BME280;21214;44.912;8.204;2023-11-21T06:03:12;99016.31;;;9.02;100.00
35023;BME280;21214;44.912;8.204;2023-11-21T06:05:37;99014.94;;;8.98;100.00
35023;BME280;21214;44.912;8.204;2023-11-21T06:08:03;99016.88;;;8.96;100.00
35023;BME280;21214;44.912;8.204;2023-11-21T06:10:29;99004.72;;;8.95;100.00
35023;BME280;21214;44.912;8.204;2023-11-21T06:12:54;99000.81;;;8.99;100.00
35023;BME280;21214;44.912;8.204;2023-11-21T06:15:20;98987.34;;;9.02;100.00
35023;BME280;21214;44.912;8.204;2023-11-21T06:17:47;98984.06;;;9.00;100.00
35023;BME280;21214;44.912;8.204;2023-11-21T06:20:17;98986.00;;;8.98;100.00
35023;BME280;21214;44.912;8.204;2023-11-21T06:22:44;98977.41;;;8.96;100.00
35023;BME280;21214;44.912;8.204;2023-11-21T06:25:10;98980.34;;;8.93;100.00
35023;BME280;21214;44.912;8.204;2023-11-21T06:27:39;98984.66;;;8.94;100.00
35023;BME280;21214;44.912;8.204;2023-11-21T06:30:04;98981.03;;;8.95;100.00
35023;BME280;21214;44.912;8.204;2023-11-21T06:32:30;98982.97;;;8.93;100.00
35023;BME280;21214;44.912;8.204;2023-11-21T06:34:55;98981.31;;;8.92;100.00
35023;BME280;21214;44.912;8.204;2023-11-21T06:37:21;98977.72;;;8.93;100.00
35023;BME280;21214;44.912;8.204;2023-11-21T06:39:51;98974.41;;;8.91;100.00
35023;BME280;21214;44.912;8.204;2023-11-21T06:42:17;98977.41;;;8.96;100.00
35023;BME280;21214;44.912;8.204;2023-11-21T06:44:43;98986.84;;;8.98;100.00
35023;BME280;21214;44.912;8.204;2023-11-21T06:47:09;98989.00;;;9.03;100.00
35023;BME280;21214;44.912;8.204;2023-11-21T06:49:35;98994.84;;;9.07;100.00
35023;BME280;21214;44.912;8.204;2023-11-21T06:52:01;98995.94;;;9.04;100.00
35023;BME280;21214;44.912;8.204;2023-11-21T06:54:28;99006.19;;;9.07;100.00
35023;BME280;21214;44.912;8.204;2023-11-21T06:56:53;99008.50;;;9.10;100.00
35023;BME280;21214;44.912;8.204;2023-11-21T06:59:18;99023.19;;;9.13;100.00
35023;BME280;21214;44.912;8.204;2023-11-21T07:01:44;99026.34;;;9.16;100.00
35023;BME280;21214;44.912;8.204;2023-11-21T07:04:09;99031.47;;;9.18;100.00
35023;BME280;21214;44.912;8.204;2023-11-21T07:06:35;99030.25;;;9.12;100.00
35023;BME280;21214;44.912;8.204;2023-11-21T07:09:00;99019.44;;;9.15;100.00
35023;BME280;21214;44.912;8.204;2023-11-21T07:11:26;99029.38;;;9.21;100.00
35023;BME280;21214;44.912;8.204;2023-11-21T07:13:52;99039.63;;;9.24;100.00
35023;BME280;21214;44.912;8.204;2023-11-21T07:16:17;99039.38;;;9.18;100.00
35023;BME280;21214;44.912;8.204;2023-11-21T07:18:43;99033.03;;;9.11;100.00
35023;BME280;21214;44.912;8.204;2023-11-21T07:21:09;99028.88;;;9.08;100.00
35023;BME280;21214;44.912;8.204;2023-11-21T07:23:37;99025.59;;;9.06;100.00
35023;BME280;21214;44.912;8.204;2023-11-21T07:26:02;99032.91;;;9.12;100.00
35023;BME280;21214;44.912;8.204;2023-11-21T07:28:28;99042.72;;;9.10;100.00
35023;BME280;21214;44.912;8.204;2023-11-21T07:30:53;99040.78;;;9.12;100.00
35023;BME280;21214;44.912;8.204;2023-11-21T07:33:19;99029.00;;;9.16;100.00
35023;BME280;21214;44.912;8.204;2023-11-21T07:35:44;99025.25;;;9.19;100.00
35023;BME280;21214;44.912;8.204;2023-11-21T07:38:10;99033.28;;;9.17;100.00
35023;BME280;21214;44.912;8.204;2023-11-21T07:40:35;99021.38;;;9.13;100.00
35023;BME280;21214;44.912;8.204;2023-11-21T07:43:00;99022.75;;;9.17;100.00
35023;BME280;21214;44.912;8.204;2023-11-21T07:45:27;99029.69;;;9.18;100.00
35023;BME280;21214;44.912;8.204;2023-11-21T07:47:55;99030.34;;;9.20;100.00
35023;BME280;21214;44.912;8.204;2023-11-21T07:50:21;99029.09;;;9.24;100.00
35023;BME280;21214;44.912;8.204;2023-11-21T07:52:48;99041.81;;;9.29;100.00
35023;BME280;21214;44.912;8.204;2023-11-21T07:55:14;99034.75;;;9.29;100.00
35023;BME280;21214;44.912;8.204;2023-11-21T07:57:40;99029.31;;;9.31;100.00
35023;BME280;21214;44.912;8.204;2023-11-21T08:00:06;99025.56;;;9.33;100.00
35023;BME280;21214;44.912;8.204;2023-11-21T08:02:38;99032.63;;;9.33;100.00
35023;BME280;21214;44.912;8.204;2023-11-21T08:05:04;99028.59;;;9.38;100.00
35023;BME280;21214;44.912;8.204;2023-11-21T08:07:30;99025.66;;;9.41;100.00
35023;BME280;21214;44.912;8.204;2023-11-21T08:09:56;99009.56;;;9.44;100.00
35023;BME280;21214;44.912;8.204;2023-11-21T08:12:21;98999.56;;;9.48;100.00
35023;BME280;21214;44.912;8.204;2023-11-21T08:14:47;98994.81;;;9.52;100.00
35023;BME280;21214;44.912;8.204;2023-11-21T08:17:12;98998.13;;;9.54;100.00
35023;BME280;21214;44.912;8.204;2023-11-21T08:19:39;98997.81;;;9.57;100.00
35023;BME280;21214;44.912;8.204;2023-11-21T08:22:04;98991.13;;;9.62;100.00
35023;BME280;21214;44.912;8.204;2023-11-21T08:24:33;98994.97;;;9.68;100.00
35023;BME280;21214;44.912;8.204;2023-11-21T08:29:40;99003.78;;;9.76;100.00
35023;BME280;21214;44.912;8.204;2023-11-21T08:32:07;99003.47;;;9.79;100.00
35023;BME280;21214;44.912;8.204;2023-11-21T08:34:32;99006.78;;;9.81;100.00
35023;BME280;21214;44.912;8.204;2023-11-21T08:36:58;99008.47;;;9.82;100.00
35023;BME280;21214;44.912;8.204;2023-11-21T08:39:23;99002.03;;;9.85;100.00
35023;BME280;21214;44.912;8.204;2023-11-21T08:41:49;98989.53;;;9.87;100.00
35023;BME280;21214;44.912;8.204;2023-11-21T08:44:16;98982.47;;;9.88;100.00
35023;BME280;21214;44.912;8.204;2023-11-21T08:46:43;98984.13;;;9.89;100.00
35023;BME280;21214;44.912;8.204;2023-11-21T08:49:10;98980.97;;;9.85;100.00
35023;BME280;21214;44.912;8.204;2023-11-21T08:51:36;98976.28;;;9.79;100.00
35023;BME280;21214;44.912;8.204;2023-11-21T08:54:02;98973.50;;;9.80;100.00
35023;BME280;21214;44.912;8.204;2023-11-21T08:56:29;98973.22;;;9.83;100.00
35023;BME280;21214;44.912;8.204;2023-11-21T08:58:55;98959.72;;;9.86;100.00
35023;BME280;21214;44.912;8.204;2023-11-21T09:01:20;98953.47;;;9.88;100.00
35023;BME280;21214;44.912;8.204;2023-11-21T09:03:46;98956.25;;;9.86;100.00
35023;BME280;21214;44.912;8.204;2023-11-21T09:06:12;98955.97;;;9.89;100.00
35023;BME280;21214;44.912;8.204;2023-11-21T09:08:39;98964.25;;;9.94;100.00
35023;BME280;21214;44.912;8.204;2023-11-21T09:11:04;98962.81;;;10.00;100.00
35023;BME280;21214;44.912;8.204;2023-11-21T09:13:30;98962.47;;;10.03;100.00
35023;BME280;21214;44.912;8.204;2023-11-21T09:15:56;98946.38;;;10.06;100.00
35023;BME280;21214;44.912;8.204;2023-11-21T09:18:21;98946.19;;;10.07;100.00
35023;BME280;21214;44.912;8.204;2023-11-21T09:20:46;98943.28;;;10.10;100.00
35023;BME280;21214;44.912;8.204;2023-11-21T09:23:12;98938.69;;;10.12;100.00
35023;BME280;21214;44.912;8.204;2023-11-21T09:25:37;98933.09;;;10.15;100.00
35023;BME280;21214;44.912;8.204;2023-11-21T09:28:05;98941.59;;;10.09;100.00
35023;BME280;21214;44.912;8.204;2023-11-21T09:30:34;98942.94;;;10.13;100.00
35023;BME280;21214;44.912;8.204;2023-11-21T09:33:01;98941.00;;;10.15;100.00
35023;BME280;21214;44.912;8.204;2023-11-21T09:35:26;98932.13;;;10.16;100.00
35023;BME280;21214;44.912;8.204;2023-11-21T09:37:53;98927.22;;;10.21;100.00
35023;BME280;21214;44.912;8.204;2023-11-21T09:40:20;98929.25;;;10.27;100.00
35023;BME280;21214;44.912;8.204;2023-11-21T09:45:21;98932.94;;;10.43;100.00
35023;BME280;21214;44.912;8.204;2023-11-21T09:47:51;98927.38;;;10.46;100.00
35023;BME280;21214;44.912;8.204;2023-11-21T09:50:17;98926.53;;;10.45;100.00
35023;BME280;21214;44.912;8.204;2023-11-21T09:55:27;98923.41;;;10.50;100.00
35023;BME280;21214;44.912;8.204;2023-11-21T09:57:58;98924.44;;;10.57;100.00
35023;BME280;21214;44.912;8.204;2023-11-21T10:00:24;98923.50;;;10.66;100.00
35023;BME280;21214;44.912;8.204;2023-11-21T10:02:49;98920.22;;;10.72;100.00
35023;BME280;21214;44.912;8.204;2023-11-21T10:05:16;98929.97;;;10.80;100.00
35023;BME280;21214;44.912;8.204;2023-11-21T10:07:43;98919.22;;;10.73;100.00
35023;BME280;21214;44.912;8.204;2023-11-21T10:10:10;98913.94;;;10.73;100.00
35023;BME280;21214;44.912;8.204;2023-11-21T10:12:35;98901.75;;;10.72;100.00
35023;BME280;21214;44.912;8.204;2023-11-21T10:15:03;98900.94;;;10.72;100.00
35023;BME280;21214;44.912;8.204;2023-11-21T10:17:32;98906.38;;;10.70;100.00
35023;BME280;21214;44.912;8.204;2023-11-21T10:20:04;98903.38;;;10.65;100.00
35023;BME280;21214;44.912;8.204;2023-11-21T10:22:37;98902.41;;;10.66;100.00
35023;BME280;21214;44.912;8.204;2023-11-21T10:25:03;98906.03;;;10.65;100.00
35023;BME280;21214;44.912;8.204;2023-11-21T10:27:33;98908.31;;;10.60;100.00
35023;BME280;21214;44.912;8.204;2023-11-21T10:30:00;98901.56;;;10.65;100.00
35023;BME280;21214;44.912;8.204;2023-11-21T10:32:28;98902.06;;;10.69;100.00
35023;BME280;21214;44.912;8.204;2023-11-21T10:34:56;98885.59;;;10.75;100.00
35023;BME280;21214;44.912;8.204;2023-11-21T10:37:22;98891.91;;;10.82;100.00
35023;BME280;21214;44.912;8.204;2023-11-21T10:39:48;98887.25;;;10.84;100.00
35023;BME280;21214;44.912;8.204;2023-11-21T10:42:14;98888.78;;;10.87;100.00
35023;BME280;21214;44.912;8.204;2023-11-21T10:44:41;98879.38;;;10.92;100.00
35023;BME280;21214;44.912;8.204;2023-11-21T10:47:08;98873.59;;;10.97;100.00
35023;BME280;21214;44.912;8.204;2023-11-21T10:49:33;98866.84;;;11.02;100.00
35023;BME280;21214;44.912;8.204;2023-11-21T10:51:59;98866.53;;;11.05;100.00
35023;BME280;21214;44.912;8.204;2023-11-21T10:54:25;98870.19;;;11.13;100.00
35023;BME280;21214;44.912;8.204;2023-11-21T10:56:52;98867.88;;;11.18;100.00
35023;BME280;21214;44.912;8.204;2023-11-21T10:59:18;98863.78;;;11.23;100.00
35023;BME280;21214;44.912;8.204;2023-11-21T11:01:46;98857.97;;;11.20;100.00
35023;BME280;21214;44.912;8.204;2023-11-21T11:04:12;98856.34;;;11.19;100.00
35023;BME280;21214;44.912;8.204;2023-11-21T11:06:44;98851.06;;;11.19;100.00
35023;BME280;21214;44.912;8.204;2023-11-21T11:09:11;98851.41;;;11.24;100.00
35023;BME280;21214;44.912;8.204;2023-11-21T11:11:39;98848.75;;;11.24;100.00
35023;BME280;21214;44.912;8.204;2023-11-21T11:14:07;98842.81;;;11.30;100.00
35023;BME280;21214;44.912;8.204;2023-11-21T11:16:32;98847.28;;;11.29;100.00
35023;BME280;21214;44.912;8.204;2023-11-21T11:18:59;98838.84;;;11.18;100.00
35023;BME280;21214;44.912;8.204;2023-11-21T11:21:27;98831.56;;;11.28;100.00
35023;BME280;21214;44.912;8.204;2023-11-21T11:24:16;98832.25;;;11.30;100.00
35023;BME280;21214;44.912;8.204;2023-11-21T11:26:47;98831.41;;;11.37;100.00
35023;BME280;21214;44.912;8.204;2023-11-21T11:34:26;98816.72;;;11.51;100.00
35023;BME280;21214;44.912;8.204;2023-11-21T11:36:57;98811.75;;;11.40;100.00
35023;BME280;21214;44.912;8.204;2023-11-21T11:39:37;98801.19;;;11.56;100.00
35023;BME280;21214;44.912;8.204;2023-11-21T11:42:03;98801.84;;;11.66;100.00
35023;BME280;21214;44.912;8.204;2023-11-21T11:54:59;98779.94;;;12.05;100.00
35023;BME280;21214;44.912;8.204;2023-11-21T11:57:25;98770.94;;;12.22;100.00
35023;BME280;21214;44.912;8.204;2023-11-21T12:02:36;98792.66;;;12.48;100.00
35023;BME280;21214;44.912;8.204;2023-11-21T12:05:07;98793.94;;;12.60;100.00
35023;BME280;21214;44.912;8.204;2023-11-21T12:07:44;98781.44;;;12.38;100.00
35023;BME280;21214;44.912;8.204;2023-11-21T12:10:15;98786.06;;;12.44;100.00
35023;BME280;21214;44.912;8.204;2023-11-21T12:12:43;98771.38;;;12.42;100.00
35023;BME280;21214;44.912;8.204;2023-11-21T12:15:10;98770.53;;;12.41;100.00
35023;BME280;21214;44.912;8.204;2023-11-21T12:17:36;98778.75;;;12.54;100.00
35023;BME280;21214;44.912;8.204;2023-11-21T12:20:03;98775.03;;;12.63;100.00
35023;BME280;21214;44.912;8.204;2023-11-21T12:22:29;98777.84;;;12.62;100.00
35023;BME280;21214;44.912;8.204;2023-11-21T12:24:56;98771.16;;;12.74;100.00
35023;BME280;21214;44.912;8.204;2023-11-21T12:27:21;98769.63;;;12.80;100.00
35023;BME280;21214;44.912;8.204;2023-11-21T12:29:50;98773.91;;;12.89;100.00
35023;BME280;21214;44.912;8.204;2023-11-21T12:32:16;98774.09;;;13.02;100.00
35023;BME280;21214;44.912;8.204;2023-11-21T12:34:44;98762.13;;;13.14;100.00
35023;BME280;21214;44.912;8.204;2023-11-21T12:37:09;98766.81;;;13.27;100.00
35023;BME280;21214;44.912;8.204;2023-11-21T12:39:35;98767.03;;;13.40;100.00
35023;BME280;21214;44.912;8.204;2023-11-21T12:42:01;98780.28;;;13.25;100.00
35023;BME280;21214;44.912;8.204;2023-11-21T12:44:27;98779.94;;;13.20;100.00
35023;BME280;21214;44.912;8.204;2023-11-21T12:46:52;98778.50;;;13.18;100.00
35023;BME280;21214;44.912;8.204;2023-11-21T12:49:18;98765.16;;;13.03;100.00
35023;BME280;21214;44.912;8.204;2023-11-21T12:51:45;98759.78;;;13.19;100.00
35023;BME280;21214;44.912;8.204;2023-11-21T12:54:11;98763.34;;;13.26;100.00
35023;BME280;21214;44.912;8.204;2023-11-21T12:56:38;98761.28;;;13.36;100.00
35023;BME280;21214;44.912;8.204;2023-11-21T12:59:04;98768.69;;;13.56;100.00
35023;BME280;21214;44.912;8.204;2023-11-21T13:01:30;98773.88;;;13.72;100.00
35023;BME280;21214;44.912;8.204;2023-11-21T13:03:59;98768.84;;;13.77;100.00
35023;BME280;21214;44.912;8.204;2023-11-21T13:06:24;98766.06;;;13.85;100.00
35023;BME280;21214;44.912;8.204;2023-11-21T13:08:51;98764.81;;;13.81;100.00
35023;BME280;21214;44.912;8.204;2023-11-21T13:11:16;98757.09;;;13.57;100.00
35023;BME280;21214;44.912;8.204;2023-11-21T13:13:43;98752.00;;;13.70;100.00
35023;BME280;21214;44.912;8.204;2023-11-21T13:16:11;98759.56;;;13.73;100.00
35023;BME280;21214;44.912;8.204;2023-11-21T13:18:36;98753.03;;;13.83;100.00